createdAt,value
2018-12-14T12:18:23.338Z,-0.10
2018-12-14T12:20:53.222Z,-0.20
2018-12-14T12:23:25.570Z,-0.30
2018-12-14T12:25:58.342Z,-0.30
2018-12-14T12:28:29.264Z,-0.30
2018-12-14T12:31:00.462Z,-0.30
2018-12-14T12:33:32.331Z,-0.30
2018-12-14T12:36:02.351Z,-0.30
2018-12-14T12:38:38.466Z,-0.30
2018-12-14T12:41:08.141Z,-0.30
2018-12-14T12:43:39.738Z,-0.40
2018-12-14T12:46:10.357Z,-0.50
2018-12-14T12:48:42.116Z,-0.60
2018-12-14T12:51:14.122Z,-0.70
2018-12-14T12:53:46.160Z,-0.70
2018-12-14T12:56:17.230Z,-0.70
2018-12-14T12:58:49.479Z,-0.70
2018-12-14T13:01:19.940Z,-0.70
2018-12-14T13:03:51.366Z,-0.60
2018-12-14T13:06:24.406Z,-0.60
2018-12-14T13:08:55.399Z,-0.50
2018-12-14T13:11:26.968Z,-0.50
2018-12-14T13:13:58.386Z,-0.50
2018-12-14T13:16:30.727Z,-0.50
2018-12-14T13:19:04.231Z,-0.50
2018-12-14T13:21:34.463Z,-0.50
2018-12-14T13:24:06.289Z,-0.50
2018-12-14T13:26:37.416Z,-0.50
2018-12-14T13:29:10.901Z,-0.50
2018-12-14T13:31:41.374Z,-0.50
2018-12-14T13:34:13.390Z,-0.50
2018-12-14T13:36:44.478Z,-0.50
2018-12-14T13:39:17.451Z,-0.60
2018-12-14T13:41:49.169Z,-0.60
2018-12-14T13:44:19.057Z,-0.60
2018-12-14T13:46:50.191Z,-0.60
2018-12-14T13:49:22.492Z,-0.60
2018-12-14T13:51:54.463Z,-0.70
2018-12-14T13:54:25.305Z,-0.80
2018-12-14T13:56:55.123Z,-0.90
2018-12-14T13:59:28.291Z,-1.00
2018-12-14T14:01:59.118Z,-1.00
2018-12-14T14:04:30.948Z,-1.00
2018-12-14T14:07:02.403Z,-1.00
2018-12-14T14:09:33.357Z,-1.00
2018-12-14T14:12:04.995Z,-0.90
2018-12-14T14:14:35.958Z,-0.90
2018-12-14T14:17:06.493Z,-0.80
2018-12-14T14:19:39.974Z,-0.80
2018-12-14T14:22:11.064Z,-0.80
2018-12-14T14:24:41.014Z,-0.80
2018-12-14T14:27:13.005Z,-0.80
2018-12-14T14:29:43.462Z,-0.80
2018-12-14T14:32:13.550Z,-0.80
2018-12-14T14:34:43.974Z,-0.80
2018-12-14T14:37:17.064Z,-0.80
2018-12-14T14:39:48.378Z,-0.90
2018-12-14T14:42:19.567Z,-0.80
2018-12-14T14:44:51.131Z,-0.80
2018-12-14T14:47:22.284Z,-0.90
2018-12-14T14:49:54.953Z,-0.90
2018-12-14T14:52:26.506Z,-0.80
2018-12-14T14:54:57.587Z,-0.80
2018-12-14T14:57:29.066Z,-0.70
2018-12-14T15:00:09.769Z,-0.80
2018-12-14T15:02:40.808Z,-0.80
2018-12-14T15:05:11.918Z,-0.80
2018-12-14T15:07:45.128Z,-0.80
2018-12-14T15:10:16.130Z,-0.80
2018-12-14T15:12:47.477Z,-0.70
2018-12-14T15:15:18.895Z,-0.70
2018-12-14T15:17:51.061Z,-0.70
2018-12-14T15:20:22.726Z,-0.80
2018-12-14T15:22:55.178Z,-0.80
2018-12-14T15:25:26.181Z,-0.80
2018-12-14T15:28:00.040Z,-0.70
2018-12-14T15:30:31.621Z,-0.60
2018-12-14T15:33:03.625Z,-0.60
2018-12-14T15:35:35.144Z,-0.70
2018-12-14T15:38:06.692Z,-0.60
2018-12-14T15:40:50.158Z,-0.60
2018-12-14T15:43:22.104Z,-0.60
2018-12-14T15:45:53.369Z,-0.70
2018-12-14T15:48:23.159Z,-0.80
2018-12-14T15:50:53.079Z,-0.80
2018-12-14T15:53:25.294Z,-0.80
2018-12-14T15:55:56.082Z,-0.80
2018-12-14T15:58:28.037Z,-0.90
2018-12-14T16:01:01.387Z,-0.90
2018-12-14T16:06:52.832Z,-1.10
2018-12-14T16:09:23.827Z,-1.20
2018-12-14T16:11:54.854Z,-1.30
2018-12-14T16:14:25.972Z,-1.30
2018-12-14T16:17:00.236Z,-1.40
2018-12-14T16:19:33.869Z,-1.50
2018-12-14T16:22:07.792Z,-1.70
2018-12-14T16:24:41.262Z,-1.80
2018-12-14T16:27:13.065Z,-1.90
2018-12-14T16:29:47.377Z,-1.90
2018-12-14T16:32:26.012Z,-1.90
2018-12-14T16:34:56.064Z,-2.00
2018-12-14T16:37:29.482Z,-2.00
2018-12-14T16:55:26.488Z,-2.10
2018-12-14T16:57:56.398Z,-2.30
2018-12-14T17:00:28.804Z,-2.40
2018-12-14T17:03:00.285Z,-2.50
2018-12-14T17:05:29.933Z,-2.60
2018-12-14T17:08:00.690Z,-2.60
2018-12-14T17:11:10.086Z,-2.70
2018-12-14T17:13:40.993Z,-2.80
2018-12-14T17:16:12.370Z,-2.90
2018-12-14T17:18:45.220Z,-3.00
2018-12-14T17:21:17.811Z,-3.10
2018-12-14T17:23:53.269Z,-3.10
2018-12-14T17:26:24.727Z,-3.20
2018-12-14T17:28:58.589Z,-3.30
2018-12-14T17:31:29.969Z,-3.30
2018-12-14T17:34:00.326Z,-3.40
2018-12-14T17:36:32.871Z,-3.50
2018-12-14T17:39:05.250Z,-3.50
2018-12-14T17:41:35.545Z,-3.60
2018-12-14T17:44:05.071Z,-3.60
2018-12-14T17:46:47.684Z,-3.60
2018-12-14T17:49:20.535Z,-3.60
2018-12-14T17:51:53.522Z,-3.60
2018-12-14T17:54:29.802Z,-3.70
2018-12-14T17:57:01.265Z,-3.70
2018-12-14T17:59:32.546Z,-3.60
2018-12-14T18:02:04.923Z,-3.60
2018-12-14T18:04:36.677Z,-3.60
2018-12-14T18:07:07.674Z,-3.40
2018-12-14T18:09:36.870Z,-3.30
2018-12-14T18:12:06.846Z,-3.30
2018-12-14T18:14:38.232Z,-3.20
2018-12-14T18:17:07.833Z,-3.20
2018-12-14T18:19:37.689Z,-3.20
2018-12-14T18:22:09.442Z,-3.20
2018-12-14T18:24:39.362Z,-3.30
2018-12-14T18:27:14.024Z,-3.30
2018-12-14T18:29:49.448Z,-3.40
2018-12-14T18:38:06.703Z,-3.70
2018-12-14T18:40:43.368Z,-3.80
2018-12-14T18:43:16.746Z,-3.90
2018-12-14T18:56:08.526Z,-3.90
2018-12-14T19:51:14.876Z,-4.70
2018-12-14T19:53:45.978Z,-4.70
2018-12-14T20:23:42.309Z,-5.10
2018-12-14T20:26:13.691Z,-5.20
2018-12-14T20:28:45.222Z,-5.20
2018-12-14T20:31:16.264Z,-5.20
2018-12-14T20:33:52.281Z,-5.20
2018-12-14T20:36:24.630Z,-5.20
2018-12-14T20:38:54.972Z,-5.30
2018-12-14T20:41:26.521Z,-5.30
2018-12-14T20:47:00.389Z,-5.30
2018-12-14T20:52:34.406Z,-5.30
2018-12-14T20:55:05.473Z,-5.30
2018-12-14T20:57:36.350Z,-5.20
2018-12-14T21:00:08.264Z,-5.20
2018-12-14T21:02:39.019Z,-5.10
2018-12-14T21:08:20.016Z,-5.10
